sensor_id;sensor_type;location;lat;lon;timestamp;P1;durP1;ratioP1;P2;durP2;ratioP2
84386;SDS011;74580;47.078;15.446;2023-12-20T00:01:31;3.70;;;2.30;;
84386;SDS011;74580;47.078;15.446;2023-12-20T00:03:56;3.00;;;1.70;;
84386;SDS011;74580;47.078;15.446;2023-12-20T00:06:22;3.25;;;1.75;;
84386;SDS011;74580;47.078;15.446;2023-12-20T00:08:47;3.63;;;2.03;;
84386;SDS011;74580;47.078;15.446;2023-12-20T00:11:13;2.42;;;1.73;;
84386;SDS011;74580;47.078;15.446;2023-12-20T00:13:38;3.37;;;1.93;;
84386;SDS011;74580;47.078;15.446;2023-12-20T00:16:03;2.92;;;1.85;;
84386;SDS011;74580;47.078;15.446;2023-12-20T00:18:29;2.65;;;1.70;;
84386;SDS011;74580;47.078;15.446;2023-12-20T00:20:54;2.72;;;1.70;;
84386;SDS011;74580;47.078;15.446;2023-12-20T00:23:19;3.17;;;1.80;;
84386;SDS011;74580;47.078;15.446;2023-12-20T00:25:45;2.85;;;1.85;;
84386;SDS011;74580;47.078;15.446;2023-12-20T00:28:10;3.30;;;2.03;;
84386;SDS011;74580;47.078;15.446;2023-12-20T00:30:35;3.47;;;1.98;;
84386;SDS011;74580;47.078;15.446;2023-12-20T00:33:01;2.65;;;1.70;;
84386;SDS011;74580;47.078;15.446;2023-12-20T00:35:27;4.10;;;1.88;;
84386;SDS011;74580;47.078;15.446;2023-12-20T00:37:52;4.07;;;1.88;;
84386;SDS011;74580;47.078;15.446;2023-12-20T00:40:18;2.78;;;1.75;;
84386;SDS011;74580;47.078;15.446;2023-12-20T00:42:43;3.03;;;1.60;;
84386;SDS011;74580;47.078;15.446;2023-12-20T00:45:08;3.53;;;1.83;;
84386;SDS011;74580;47.078;15.446;2023-12-20T00:47:34;3.17;;;1.73;;
84386;SDS011;74580;47.078;15.446;2023-12-20T00:49:59;2.97;;;1.83;;
84386;SDS011;74580;47.078;15.446;2023-12-20T00:52:25;2.72;;;1.63;;
84386;SDS011;74580;47.078;15.446;2023-12-20T00:54:50;2.88;;;2.03;;
84386;SDS011;74580;47.078;15.446;2023-12-20T00:57:15;2.75;;;1.80;;
84386;SDS011;74580;47.078;15.446;2023-12-20T00:59:41;4.30;;;1.92;;
84386;SDS011;74580;47.078;15.446;2023-12-20T01:02:06;2.47;;;1.40;;
84386;SDS011;74580;47.078;15.446;2023-12-20T01:04:32;2.85;;;1.85;;
84386;SDS011;74580;47.078;15.446;2023-12-20T01:06:57;2.90;;;1.80;;
84386;SDS011;74580;47.078;15.446;2023-12-20T01:09:23;2.45;;;1.75;;
84386;SDS011;74580;47.078;15.446;2023-12-20T01:11:51;2.90;;;1.70;;
84386;SDS011;74580;47.078;15.446;2023-12-20T01:14:17;3.08;;;1.98;;
84386;SDS011;74580;47.078;15.446;2023-12-20T01:16:42;3.53;;;1.80;;
84386;SDS011;74580;47.078;15.446;2023-12-20T01:19:07;2.90;;;1.63;;
84386;SDS011;74580;47.078;15.446;2023-12-20T01:21:32;2.63;;;1.60;;
84386;SDS011;74580;47.078;15.446;2023-12-20T01:23:58;3.55;;;1.63;;
84386;SDS011;74580;47.078;15.446;2023-12-20T01:26:23;2.40;;;1.73;;
84386;SDS011;74580;47.078;15.446;2023-12-20T01:28:49;3.20;;;1.73;;
84386;SDS011;74580;47.078;15.446;2023-12-20T01:31:14;3.10;;;1.90;;
84386;SDS011;74580;47.078;15.446;2023-12-20T01:33:39;2.85;;;1.80;;
84386;SDS011;74580;47.078;15.446;2023-12-20T01:36:05;4.07;;;1.73;;
84386;SDS011;74580;47.078;15.446;2023-12-20T01:38:30;2.88;;;1.60;;
84386;SDS011;74580;47.078;15.446;2023-12-20T01:40:55;2.75;;;1.60;;
84386;SDS011;74580;47.078;15.446;2023-12-20T01:43:21;2.97;;;1.73;;
84386;SDS011;74580;47.078;15.446;2023-12-20T01:45:46;3.58;;;1.83;;
84386;SDS011;74580;47.078;15.446;2023-12-20T01:48:12;2.58;;;1.52;;
84386;SDS011;74580;47.078;15.446;2023-12-20T01:50:39;2.92;;;1.80;;
84386;SDS011;74580;47.078;15.446;2023-12-20T01:53:06;2.72;;;1.70;;
84386;SDS011;74580;47.078;15.446;2023-12-20T01:55:34;2.75;;;1.85;;
84386;SDS011;74580;47.078;15.446;2023-12-20T01:58:01;2.80;;;1.67;;
84386;SDS011;74580;47.078;15.446;2023-12-20T02:00:27;2.58;;;1.63;;
84386;SDS011;74580;47.078;15.446;2023-12-20T02:02:55;2.72;;;1.67;;
84386;SDS011;74580;47.078;15.446;2023-12-20T02:05:21;2.50;;;1.60;;
84386;SDS011;74580;47.078;15.446;2023-12-20T02:07:47;3.63;;;2.10;;
84386;SDS011;74580;47.078;15.446;2023-12-20T02:10:13;2.75;;;1.80;;
84386;SDS011;74580;47.078;15.446;2023-12-20T02:12:38;2.80;;;1.67;;
84386;SDS011;74580;47.078;15.446;2023-12-20T02:15:05;2.38;;;1.52;;
84386;SDS011;74580;47.078;15.446;2023-12-20T02:17:31;2.40;;;1.60;;
84386;SDS011;74580;47.078;15.446;2023-12-20T02:19:57;2.80;;;1.90;;
84386;SDS011;74580;47.078;15.446;2023-12-20T02:22:22;3.33;;;1.95;;
84386;SDS011;74580;47.078;15.446;2023-12-20T02:24:47;3.08;;;1.83;;
84386;SDS011;74580;47.078;15.446;2023-12-20T02:27:13;2.50;;;1.70;;
84386;SDS011;74580;47.078;15.446;2023-12-20T02:29:40;3.20;;;1.80;;
84386;SDS011;74580;47.078;15.446;2023-12-20T02:32:05;2.95;;;2.22;;
84386;SDS011;74580;47.078;15.446;2023-12-20T02:34:31;2.90;;;1.60;;
84386;SDS011;74580;47.078;15.446;2023-12-20T02:36:56;2.88;;;1.70;;
84386;SDS011;74580;47.078;15.446;2023-12-20T02:39:21;2.83;;;1.33;;
84386;SDS011;74580;47.078;15.446;2023-12-20T02:41:47;2.90;;;1.83;;
84386;SDS011;74580;47.078;15.446;2023-12-20T02:44:13;2.88;;;1.50;;
84386;SDS011;74580;47.078;15.446;2023-12-20T02:46:39;3.08;;;1.80;;
84386;SDS011;74580;47.078;15.446;2023-12-20T02:49:04;2.28;;;1.48;;
84386;SDS011;74580;47.078;15.446;2023-12-20T02:51:30;2.20;;;1.30;;
84386;SDS011;74580;47.078;15.446;2023-12-20T02:53:56;2.63;;;1.48;;
84386;SDS011;74580;47.078;15.446;2023-12-20T02:56:21;3.00;;;1.63;;
84386;SDS011;74580;47.078;15.446;2023-12-20T02:58:46;2.70;;;1.60;;
84386;SDS011;74580;47.078;15.446;2023-12-20T03:01:12;2.90;;;1.60;;
84386;SDS011;74580;47.078;15.446;2023-12-20T03:03:37;3.30;;;1.70;;
84386;SDS011;74580;47.078;15.446;2023-12-20T03:06:02;2.05;;;1.50;;
84386;SDS011;74580;47.078;15.446;2023-12-20T03:08:28;2.38;;;1.38;;
84386;SDS011;74580;47.078;15.446;2023-12-20T03:10:53;2.90;;;1.70;;
84386;SDS011;74580;47.078;15.446;2023-12-20T03:13:19;2.60;;;1.63;;
84386;SDS011;74580;47.078;15.446;2023-12-20T03:15:44;2.33;;;1.35;;
84386;SDS011;74580;47.078;15.446;2023-12-20T03:18:10;2.95;;;1.63;;
84386;SDS011;74580;47.078;15.446;2023-12-20T03:20:36;2.28;;;1.58;;
84386;SDS011;74580;47.078;15.446;2023-12-20T03:23:01;3.22;;;1.63;;
84386;SDS011;74580;47.078;15.446;2023-12-20T03:25:27;2.67;;;1.70;;
84386;SDS011;74580;47.078;15.446;2023-12-20T03:27:52;3.00;;;1.60;;
84386;SDS011;74580;47.078;15.446;2023-12-20T03:30:18;1.85;;;1.40;;
84386;SDS011;74580;47.078;15.446;2023-12-20T03:32:43;2.40;;;1.50;;
84386;SDS011;74580;47.078;15.446;2023-12-20T03:35:09;2.55;;;1.63;;
84386;SDS011;74580;47.078;15.446;2023-12-20T03:37:35;2.40;;;1.70;;
84386;SDS011;74580;47.078;15.446;2023-12-20T03:40:01;2.63;;;1.65;;
84386;SDS011;74580;47.078;15.446;2023-12-20T03:42:27;2.65;;;1.52;;
84386;SDS011;74580;47.078;15.446;2023-12-20T03:44:52;2.20;;;1.50;;
84386;SDS011;74580;47.078;15.446;2023-12-20T03:47:18;2.15;;;1.42;;
84386;SDS011;74580;47.078;15.446;2023-12-20T03:49:43;2.38;;;1.40;;
84386;SDS011;74580;47.078;15.446;2023-12-20T03:52:08;2.30;;;1.40;;
84386;SDS011;74580;47.078;15.446;2023-12-20T03:54:35;2.42;;;1.42;;
84386;SDS011;74580;47.078;15.446;2023-12-20T03:57:00;2.92;;;1.50;;
84386;SDS011;74580;47.078;15.446;2023-12-20T03:59:26;2.60;;;1.52;;
84386;SDS011;74580;47.078;15.446;2023-12-20T04:01:51;2.50;;;1.52;;
84386;SDS011;74580;47.078;15.446;2023-12-20T04:04:16;2.67;;;1.45;;
84386;SDS011;74580;47.078;15.446;2023-12-20T04:06:41;2.20;;;1.20;;
84386;SDS011;74580;47.078;15.446;2023-12-20T04:09:07;1.80;;;1.30;;
84386;SDS011;74580;47.078;15.446;2023-12-20T04:11:34;2.60;;;1.33;;
84386;SDS011;74580;47.078;15.446;2023-12-20T04:14:00;2.88;;;1.50;;
84386;SDS011;74580;47.078;15.446;2023-12-20T04:16:25;2.22;;;1.40;;
84386;SDS011;74580;47.078;15.446;2023-12-20T04:18:51;2.70;;;1.70;;
84386;SDS011;74580;47.078;15.446;2023-12-20T04:21:17;2.47;;;1.45;;
84386;SDS011;74580;47.078;15.446;2023-12-20T04:23:43;2.38;;;1.35;;
84386;SDS011;74580;47.078;15.446;2023-12-20T04:26:08;2.47;;;1.30;;
84386;SDS011;74580;47.078;15.446;2023-12-20T04:28:34;1.92;;;1.25;;
84386;SDS011;74580;47.078;15.446;2023-12-20T04:30:59;2.28;;;1.42;;
84386;SDS011;74580;47.078;15.446;2023-12-20T04:33:24;2.78;;;1.48;;
84386;SDS011;74580;47.078;15.446;2023-12-20T04:35:50;2.30;;;1.50;;
84386;SDS011;74580;47.078;15.446;2023-12-20T04:38:15;2.72;;;1.60;;
84386;SDS011;74580;47.078;15.446;2023-12-20T04:40:41;1.80;;;1.20;;
84386;SDS011;74580;47.078;15.446;2023-12-20T04:43:06;2.23;;;1.40;;
84386;SDS011;74580;47.078;15.446;2023-12-20T04:45:32;2.17;;;1.30;;
84386;SDS011;74580;47.078;15.446;2023-12-20T04:47:58;2.25;;;1.48;;
84386;SDS011;74580;47.078;15.446;2023-12-20T04:50:23;2.30;;;1.60;;
84386;SDS011;74580;47.078;15.446;2023-12-20T04:52:48;2.25;;;1.33;;
84386;SDS011;74580;47.078;15.446;2023-12-20T04:55:14;2.08;;;1.40;;
84386;SDS011;74580;47.078;15.446;2023-12-20T04:57:39;1.83;;;1.23;;
84386;SDS011;74580;47.078;15.446;2023-12-20T05:00:05;1.25;;;0.90;;
84386;SDS011;74580;47.078;15.446;2023-12-20T05:02:33;2.50;;;1.60;;
84386;SDS011;74580;47.078;15.446;2023-12-20T05:04:58;2.17;;;1.27;;
84386;SDS011;74580;47.078;15.446;2023-12-20T05:07:24;2.17;;;1.33;;
84386;SDS011;74580;47.078;15.446;2023-12-20T05:09:49;2.40;;;1.23;;
84386;SDS011;74580;47.078;15.446;2023-12-20T05:12:14;1.73;;;1.13;;
84386;SDS011;74580;47.078;15.446;2023-12-20T05:14:40;2.05;;;1.30;;
84386;SDS011;74580;47.078;15.446;2023-12-20T05:17:05;2.20;;;1.20;;
84386;SDS011;74580;47.078;15.446;2023-12-20T05:19:31;2.20;;;1.20;;
84386;SDS011;74580;47.078;15.446;2023-12-20T05:22:00;2.33;;;1.50;;
84386;SDS011;74580;47.078;15.446;2023-12-20T05:24:25;1.92;;;1.08;;
84386;SDS011;74580;47.078;15.446;2023-12-20T05:26:50;2.60;;;1.15;;
84386;SDS011;74580;47.078;15.446;2023-12-20T05:29:16;2.30;;;1.30;;
84386;SDS011;74580;47.078;15.446;2023-12-20T05:31:42;2.72;;;1.33;;
84386;SDS011;74580;47.078;15.446;2023-12-20T05:34:07;2.05;;;1.30;;
84386;SDS011;74580;47.078;15.446;2023-12-20T05:36:33;1.70;;;1.20;;
84386;SDS011;74580;47.078;15.446;2023-12-20T05:38:58;2.25;;;1.33;;
84386;SDS011;74580;47.078;15.446;2023-12-20T05:41:23;2.33;;;1.25;;
84386;SDS011;74580;47.078;15.446;2023-12-20T05:43:49;1.87;;;1.20;;
84386;SDS011;74580;47.078;15.446;2023-12-20T05:46:14;2.10;;;1.30;;
84386;SDS011;74580;47.078;15.446;2023-12-20T05:48:39;2.00;;;1.20;;
84386;SDS011;74580;47.078;15.446;2023-12-20T05:51:05;2.20;;;1.27;;
84386;SDS011;74580;47.078;15.446;2023-12-20T05:53:30;2.38;;;1.40;;
84386;SDS011;74580;47.078;15.446;2023-12-20T05:55:55;1.50;;;1.00;;
84386;SDS011;74580;47.078;15.446;2023-12-20T05:58:21;2.08;;;1.30;;
84386;SDS011;74580;47.078;15.446;2023-12-20T06:00:46;2.00;;;1.13;;
84386;SDS011;74580;47.078;15.446;2023-12-20T06:03:11;2.40;;;1.40;;
84386;SDS011;74580;47.078;15.446;2023-12-20T06:05:36;2.20;;;1.37;;
84386;SDS011;74580;47.078;15.446;2023-12-20T06:08:02;2.50;;;1.50;;
84386;SDS011;74580;47.078;15.446;2023-12-20T06:10:28;2.30;;;1.40;;
84386;SDS011;74580;47.078;15.446;2023-12-20T06:12:54;1.73;;;1.05;;
84386;SDS011;74580;47.078;15.446;2023-12-20T06:15:21;1.98;;;1.20;;
84386;SDS011;74580;47.078;15.446;2023-12-20T06:17:46;2.35;;;1.00;;
84386;SDS011;74580;47.078;15.446;2023-12-20T06:20:12;1.60;;;1.13;;
84386;SDS011;74580;47.078;15.446;2023-12-20T06:22:38;2.28;;;1.20;;
84386;SDS011;74580;47.078;15.446;2023-12-20T06:25:04;1.80;;;1.20;;
84386;SDS011;74580;47.078;15.446;2023-12-20T06:27:29;2.15;;;1.17;;
84386;SDS011;74580;47.078;15.446;2023-12-20T06:29:57;2.30;;;1.20;;
84386;SDS011;74580;47.078;15.446;2023-12-20T06:32:23;2.00;;;1.10;;
84386;SDS011;74580;47.078;15.446;2023-12-20T06:34:49;3.95;;;1.88;;
84386;SDS011;74580;47.078;15.446;2023-12-20T06:37:14;5.03;;;2.63;;
84386;SDS011;74580;47.078;15.446;2023-12-20T06:39:40;2.75;;;1.63;;
84386;SDS011;74580;47.078;15.446;2023-12-20T06:42:05;3.90;;;2.17;;
84386;SDS011;74580;47.078;15.446;2023-12-20T06:44:31;4.40;;;2.05;;
84386;SDS011;74580;47.078;15.446;2023-12-20T06:46:56;3.22;;;2.00;;
84386;SDS011;74580;47.078;15.446;2023-12-20T06:49:22;3.55;;;1.90;;
84386;SDS011;74580;47.078;15.446;2023-12-20T06:51:47;4.07;;;2.00;;
84386;SDS011;74580;47.078;15.446;2023-12-20T06:54:12;3.90;;;1.80;;
84386;SDS011;74580;47.078;15.446;2023-12-20T06:56:38;2.88;;;1.83;;
84386;SDS011;74580;47.078;15.446;2023-12-20T06:59:03;5.40;;;2.25;;
84386;SDS011;74580;47.078;15.446;2023-12-20T07:01:29;4.22;;;1.90;;
84386;SDS011;74580;47.078;15.446;2023-12-20T07:03:54;2.85;;;1.75;;
84386;SDS011;74580;47.078;15.446;2023-12-20T07:06:19;2.92;;;1.60;;
84386;SDS011;74580;47.078;15.446;2023-12-20T07:08:45;2.67;;;1.63;;
84386;SDS011;74580;47.078;15.446;2023-12-20T07:11:11;3.78;;;1.92;;
84386;SDS011;74580;47.078;15.446;2023-12-20T07:13:36;3.13;;;1.70;;
84386;SDS011;74580;47.078;15.446;2023-12-20T07:16:02;3.03;;;1.95;;
84386;SDS011;74580;47.078;15.446;2023-12-20T07:18:27;3.90;;;2.20;;
84386;SDS011;74580;47.078;15.446;2023-12-20T07:20:53;3.42;;;2.00;;
84386;SDS011;74580;47.078;15.446;2023-12-20T07:23:19;3.17;;;1.58;;
84386;SDS011;74580;47.078;15.446;2023-12-20T07:25:45;3.42;;;1.55;;
84386;SDS011;74580;47.078;15.446;2023-12-20T07:28:10;3.17;;;1.52;;
84386;SDS011;74580;47.078;15.446;2023-12-20T07:30:36;3.45;;;1.90;;
84386;SDS011;74580;47.078;15.446;2023-12-20T07:33:01;4.15;;;1.73;;
84386;SDS011;74580;47.078;15.446;2023-12-20T07:35:27;3.03;;;1.58;;
84386;SDS011;74580;47.078;15.446;2023-12-20T07:37:53;5.03;;;1.63;;
84386;SDS011;74580;47.078;15.446;2023-12-20T07:40:18;2.50;;;1.60;;
84386;SDS011;74580;47.078;15.446;2023-12-20T07:42:43;2.33;;;1.33;;
84386;SDS011;74580;47.078;15.446;2023-12-20T07:45:09;2.95;;;1.65;;
84386;SDS011;74580;47.078;15.446;2023-12-20T07:47:35;3.08;;;1.48;;
84386;SDS011;74580;47.078;15.446;2023-12-20T07:50:01;4.45;;;2.03;;
84386;SDS011;74580;47.078;15.446;2023-12-20T07:52:27;4.25;;;1.92;;
84386;SDS011;74580;47.078;15.446;2023-12-20T07:54:53;4.90;;;2.10;;
84386;SDS011;74580;47.078;15.446;2023-12-20T07:57:19;5.47;;;2.45;;
84386;SDS011;74580;47.078;15.446;2023-12-20T07:59:44;4.18;;;1.85;;
84386;SDS011;74580;47.078;15.446;2023-12-20T08:02:10;3.87;;;1.80;;
84386;SDS011;74580;47.078;15.446;2023-12-20T08:04:35;4.07;;;2.10;;
84386;SDS011;74580;47.078;15.446;2023-12-20T08:07:00;3.80;;;2.10;;
84386;SDS011;74580;47.078;15.446;2023-12-20T08:09:26;3.33;;;1.70;;
84386;SDS011;74580;47.078;15.446;2023-12-20T08:11:51;4.10;;;1.98;;
84386;SDS011;74580;47.078;15.446;2023-12-20T08:14:16;4.30;;;2.15;;
84386;SDS011;74580;47.078;15.446;2023-12-20T08:16:42;2.72;;;1.83;;
84386;SDS011;74580;47.078;15.446;2023-12-20T08:19:07;4.57;;;2.00;;
84386;SDS011;74580;47.078;15.446;2023-12-20T08:21:33;3.05;;;1.90;;
84386;SDS011;74580;47.078;15.446;2023-12-20T08:23:58;5.32;;;1.92;;
84386;SDS011;74580;47.078;15.446;2023-12-20T08:26:25;4.43;;;1.85;;
84386;SDS011;74580;47.078;15.446;2023-12-20T08:28:51;4.53;;;1.80;;
84386;SDS011;74580;47.078;15.446;2023-12-20T08:31:16;4.68;;;1.75;;
84386;SDS011;74580;47.078;15.446;2023-12-20T08:33:45;4.07;;;1.80;;
84386;SDS011;74580;47.078;15.446;2023-12-20T08:36:12;3.95;;;1.80;;
84386;SDS011;74580;47.078;15.446;2023-12-20T08:38:38;4.25;;;2.08;;
84386;SDS011;74580;47.078;15.446;2023-12-20T08:41:03;3.67;;;1.90;;
84386;SDS011;74580;47.078;15.446;2023-12-20T08:43:32;4.32;;;1.80;;
84386;SDS011;74580;47.078;15.446;2023-12-20T08:45:59;4.07;;;1.92;;
84386;SDS011;74580;47.078;15.446;2023-12-20T08:48:24;8.52;;;3.90;;
84386;SDS011;74580;47.078;15.446;2023-12-20T08:50:49;8.23;;;3.83;;
84386;SDS011;74580;47.078;15.446;2023-12-20T08:53:16;7.43;;;3.67;;
84386;SDS011;74580;47.078;15.446;2023-12-20T08:55:42;5.47;;;3.03;;
84386;SDS011;74580;47.078;15.446;2023-12-20T08:58:07;6.25;;;2.78;;
84386;SDS011;74580;47.078;15.446;2023-12-20T09:00:33;6.70;;;3.30;;
84386;SDS011;74580;47.078;15.446;2023-12-20T09:03:00;7.32;;;3.08;;
84386;SDS011;74580;47.078;15.446;2023-12-20T09:05:27;5.97;;;3.00;;
84386;SDS011;74580;47.078;15.446;2023-12-20T09:07:52;7.90;;;3.13;;
84386;SDS011;74580;47.078;15.446;2023-12-20T09:10:18;6.15;;;2.70;;
84386;SDS011;74580;47.078;15.446;2023-12-20T09:12:47;5.55;;;2.55;;
84386;SDS011;74580;47.078;15.446;2023-12-20T09:15:25;4.82;;;2.92;;
84386;SDS011;74580;47.078;15.446;2023-12-20T09:17:51;6.85;;;2.83;;
84386;SDS011;74580;47.078;15.446;2023-12-20T09:20:17;5.38;;;2.72;;
84386;SDS011;74580;47.078;15.446;2023-12-20T09:22:42;5.57;;;2.90;;
84386;SDS011;74580;47.078;15.446;2023-12-20T09:25:09;5.30;;;2.80;;
84386;SDS011;74580;47.078;15.446;2023-12-20T09:27:36;6.03;;;3.17;;
84386;SDS011;74580;47.078;15.446;2023-12-20T09:30:02;4.82;;;2.70;;
84386;SDS011;74580;47.078;15.446;2023-12-20T09:32:27;5.53;;;2.65;;
84386;SDS011;74580;47.078;15.446;2023-12-20T09:34:54;4.32;;;2.80;;
84386;SDS011;74580;47.078;15.446;2023-12-20T09:37:19;5.50;;;2.80;;
84386;SDS011;74580;47.078;15.446;2023-12-20T09:39:45;5.13;;;2.92;;
84386;SDS011;74580;47.078;15.446;2023-12-20T09:42:11;13.80;;;3.10;;
84386;SDS011;74580;47.078;15.446;2023-12-20T09:44:42;5.07;;;3.08;;
84386;SDS011;74580;47.078;15.446;2023-12-20T09:47:09;5.53;;;2.70;;
84386;SDS011;74580;47.078;15.446;2023-12-20T09:49:35;6.30;;;3.10;;
84386;SDS011;74580;47.078;15.446;2023-12-20T09:52:02;5.32;;;2.53;;
84386;SDS011;74580;47.078;15.446;2023-12-20T09:54:32;5.55;;;2.75;;
84386;SDS011;74580;47.078;15.446;2023-12-20T09:56:58;5.13;;;3.00;;
84386;SDS011;74580;47.078;15.446;2023-12-20T09:59:23;5.85;;;2.95;;
84386;SDS011;74580;47.078;15.446;2023-12-20T10:01:48;5.35;;;2.83;;
84386;SDS011;74580;47.078;15.446;2023-12-20T10:04:15;6.38;;;2.85;;
84386;SDS011;74580;47.078;15.446;2023-12-20T10:06:41;6.97;;;2.75;;
84386;SDS011;74580;47.078;15.446;2023-12-20T10:09:08;5.30;;;3.22;;
84386;SDS011;74580;47.078;15.446;2023-12-20T10:11:35;9.60;;;5.00;;
84386;SDS011;74580;47.078;15.446;2023-12-20T10:14:02;11.48;;;6.00;;
84386;SDS011;74580;47.078;15.446;2023-12-20T10:16:28;5.93;;;3.80;;
84386;SDS011;74580;47.078;15.446;2023-12-20T10:18:54;8.27;;;4.60;;
84386;SDS011;74580;47.078;15.446;2023-12-20T10:21:20;9.60;;;5.47;;
84386;SDS011;74580;47.078;15.446;2023-12-20T10:23:47;8.50;;;4.82;;
84386;SDS011;74580;47.078;15.446;2023-12-20T10:26:33;9.82;;;5.43;;
84386;SDS011;74580;47.078;15.446;2023-12-20T10:29:01;10.48;;;5.30;;
84386;SDS011;74580;47.078;15.446;2023-12-20T10:31:33;14.52;;;5.72;;
84386;SDS011;74580;47.078;15.446;2023-12-20T10:34:00;10.32;;;5.05;;
84386;SDS011;74580;47.078;15.446;2023-12-20T10:36:27;11.32;;;5.43;;
84386;SDS011;74580;47.078;15.446;2023-12-20T10:38:54;9.25;;;4.82;;
84386;SDS011;74580;47.078;15.446;2023-12-20T10:41:26;9.30;;;5.15;;
84386;SDS011;74580;47.078;15.446;2023-12-20T10:43:56;8.65;;;5.03;;
84386;SDS011;74580;47.078;15.446;2023-12-20T10:46:27;11.20;;;4.97;;
84386;SDS011;74580;47.078;15.446;2023-12-20T10:48:54;7.07;;;4.75;;
84386;SDS011;74580;47.078;15.446;2023-12-20T10:51:20;12.20;;;4.85;;
84386;SDS011;74580;47.078;15.446;2023-12-20T10:53:47;9.55;;;4.93;;
84386;SDS011;74580;47.078;15.446;2023-12-20T10:56:15;10.10;;;5.20;;
84386;SDS011;74580;47.078;15.446;2023-12-20T11:01:14;10.85;;;4.47;;
84386;SDS011;74580;47.078;15.446;2023-12-20T11:03:43;7.68;;;4.60;;
84386;SDS011;74580;47.078;15.446;2023-12-20T11:08:59;8.68;;;4.50;;
84386;SDS011;74580;47.078;15.446;2023-12-20T11:14:13;8.23;;;4.40;;
84386;SDS011;74580;47.078;15.446;2023-12-20T11:16:44;7.85;;;4.30;;
84386;SDS011;74580;47.078;15.446;2023-12-20T11:19:10;8.65;;;4.45;;
84386;SDS011;74580;47.078;15.446;2023-12-20T11:21:38;9.15;;;4.35;;
84386;SDS011;74580;47.078;15.446;2023-12-20T11:24:05;11.10;;;5.10;;
84386;SDS011;74580;47.078;15.446;2023-12-20T11:26:30;7.03;;;4.22;;
84386;SDS011;74580;47.078;15.446;2023-12-20T11:32:00;8.30;;;5.05;;
84386;SDS011;74580;47.078;15.446;2023-12-20T11:34:31;11.43;;;4.65;;
84386;SDS011;74580;47.078;15.446;2023-12-20T11:36:58;7.78;;;3.90;;
84386;SDS011;74580;47.078;15.446;2023-12-20T11:39:25;8.40;;;4.70;;
84386;SDS011;74580;47.078;15.446;2023-12-20T11:41:53;10.18;;;4.55;;
84386;SDS011;74580;47.078;15.446;2023-12-20T11:44:20;8.40;;;4.53;;
84386;SDS011;74580;47.078;15.446;2023-12-20T11:46:45;8.35;;;4.70;;
84386;SDS011;74580;47.078;15.446;2023-12-20T11:49:11;7.85;;;4.75;;
84386;SDS011;74580;47.078;15.446;2023-12-20T11:51:40;10.80;;;4.63;;
84386;SDS011;74580;47.078;15.446;2023-12-20T11:54:06;10.43;;;4.85;;
84386;SDS011;74580;47.078;15.446;2023-12-20T11:56:31;10.52;;;4.03;;
84386;SDS011;74580;47.078;15.446;2023-12-20T11:58:57;8.75;;;4.72;;
84386;SDS011;74580;47.078;15.446;2023-12-20T12:01:23;8.40;;;4.47;;
84386;SDS011;74580;47.078;15.446;2023-12-20T12:04:00;8.18;;;4.22;;
84386;SDS011;74580;47.078;15.446;2023-12-20T12:06:30;10.38;;;4.38;;
84386;SDS011;74580;47.078;15.446;2023-12-20T12:08:55;9.73;;;4.15;;
84386;SDS011;74580;47.078;15.446;2023-12-20T12:11:21;7.45;;;4.20;;
84386;SDS011;74580;47.078;15.446;2023-12-20T12:13:48;7.63;;;4.13;;
84386;SDS011;74580;47.078;15.446;2023-12-20T12:16:16;7.70;;;4.35;;
84386;SDS011;74580;47.078;15.446;2023-12-20T12:18:45;7.45;;;4.47;;
84386;SDS011;74580;47.078;15.446;2023-12-20T12:21:10;7.28;;;4.30;;
84386;SDS011;74580;47.078;15.446;2023-12-20T12:23:43;7.18;;;4.65;;
84386;SDS011;74580;47.078;15.446;2023-12-20T12:26:08;7.35;;;4.20;;
84386;SDS011;74580;47.078;15.446;2023-12-20T12:28:34;7.13;;;4.10;;
84386;SDS011;74580;47.078;15.446;2023-12-20T12:30:59;6.20;;;3.65;;
84386;SDS011;74580;47.078;15.446;2023-12-20T12:33:25;6.97;;;4.13;;
84386;SDS011;74580;47.078;15.446;2023-12-20T12:35:51;6.50;;;4.20;;
84386;SDS011;74580;47.078;15.446;2023-12-20T12:38:19;6.82;;;3.80;;
84386;SDS011;74580;47.078;15.446;2023-12-20T12:40:46;5.97;;;4.00;;
84386;SDS011;74580;47.078;15.446;2023-12-20T12:43:11;8.00;;;3.75;;
84386;SDS011;74580;47.078;15.446;2023-12-20T12:45:37;7.00;;;3.70;;
84386;SDS011;74580;47.078;15.446;2023-12-20T12:48:03;6.28;;;3.65;;
84386;SDS011;74580;47.078;15.446;2023-12-20T12:50:30;7.75;;;4.03;;
84386;SDS011;74580;47.078;15.446;2023-12-20T12:52:56;7.28;;;3.80;;
84386;SDS011;74580;47.078;15.446;2023-12-20T12:55:21;6.82;;;3.92;;
84386;SDS011;74580;47.078;15.446;2023-12-20T12:57:46;6.90;;;3.50;;
84386;SDS011;74580;47.078;15.446;2023-12-20T13:00:12;6.82;;;3.90;;
84386;SDS011;74580;47.078;15.446;2023-12-20T13:02:38;6.13;;;3.85;;
84386;SDS011;74580;47.078;15.446;2023-12-20T13:05:06;8.82;;;4.47;;
84386;SDS011;74580;47.078;15.446;2023-12-20T13:07:32;6.43;;;3.63;;
84386;SDS011;74580;47.078;15.446;2023-12-20T13:09:58;8.85;;;3.90;;
84386;SDS011;74580;47.078;15.446;2023-12-20T13:12:23;7.17;;;3.93;;
84386;SDS011;74580;47.078;15.446;2023-12-20T13:14:48;7.60;;;4.03;;
84386;SDS011;74580;47.078;15.446;2023-12-20T13:17:14;6.47;;;3.65;;
84386;SDS011;74580;47.078;15.446;2023-12-20T13:19:40;6.93;;;3.40;;
84386;SDS011;74580;47.078;15.446;2023-12-20T13:22:05;7.38;;;4.07;;
84386;SDS011;74580;47.078;15.446;2023-12-20T13:24:31;6.97;;;3.67;;
84386;SDS011;74580;47.078;15.446;2023-12-20T13:26:57;5.93;;;3.75;;
84386;SDS011;74580;47.078;15.446;2023-12-20T13:29:23;7.22;;;3.75;;
84386;SDS011;74580;47.078;15.446;2023-12-20T13:31:49;5.78;;;3.80;;
84386;SDS011;74580;47.078;15.446;2023-12-20T13:34:14;5.40;;;3.63;;
84386;SDS011;74580;47.078;15.446;2023-12-20T13:36:42;9.57;;;4.10;;
84386;SDS011;74580;47.078;15.446;2023-12-20T13:39:10;6.93;;;3.50;;
84386;SDS011;74580;47.078;15.446;2023-12-20T13:41:37;7.13;;;3.78;;
84386;SDS011;74580;47.078;15.446;2023-12-20T13:44:02;6.15;;;3.50;;
84386;SDS011;74580;47.078;15.446;2023-12-20T13:46:28;6.93;;;3.85;;
84386;SDS011;74580;47.078;15.446;2023-12-20T13:48:54;5.75;;;3.80;;
84386;SDS011;74580;47.078;15.446;2023-12-20T13:51:19;14.73;;;6.70;;
84386;SDS011;74580;47.078;15.446;2023-12-20T13:53:45;7.45;;;4.38;;
84386;SDS011;74580;47.078;15.446;2023-12-20T13:56:11;9.40;;;5.15;;
84386;SDS011;74580;47.078;15.446;2023-12-20T13:58:36;10.70;;;4.88;;
84386;SDS011;74580;47.078;15.446;2023-12-20T14:01:02;11.18;;;5.30;;
84386;SDS011;74580;47.078;15.446;2023-12-20T14:03:27;8.55;;;4.35;;
84386;SDS011;74580;47.078;15.446;2023-12-20T14:05:53;10.20;;;4.63;;
84386;SDS011;74580;47.078;15.446;2023-12-20T14:08:18;10.98;;;4.88;;
84386;SDS011;74580;47.078;15.446;2023-12-20T14:10:43;12.13;;;4.95;;
84386;SDS011;74580;47.078;15.446;2023-12-20T14:13:09;9.55;;;5.07;;
84386;SDS011;74580;47.078;15.446;2023-12-20T14:15:34;10.93;;;5.25;;
84386;SDS011;74580;47.078;15.446;2023-12-20T14:18:03;7.82;;;4.25;;
84386;SDS011;74580;47.078;15.446;2023-12-20T14:20:31;9.20;;;4.47;;
84386;SDS011;74580;47.078;15.446;2023-12-20T14:22:57;8.48;;;4.93;;
84386;SDS011;74580;47.078;15.446;2023-12-20T14:25:22;9.15;;;4.80;;
84386;SDS011;74580;47.078;15.446;2023-12-20T14:27:48;8.90;;;4.60;;
84386;SDS011;74580;47.078;15.446;2023-12-20T14:30:13;9.02;;;4.43;;
84386;SDS011;74580;47.078;15.446;2023-12-20T14:32:39;8.32;;;4.40;;
84386;SDS011;74580;47.078;15.446;2023-12-20T14:35:08;10.15;;;4.57;;
84386;SDS011;74580;47.078;15.446;2023-12-20T14:37:34;8.13;;;4.45;;